createdAt,value
2017-07-05T00:00:53.269Z,1007.92
2017-07-05T00:01:53.289Z,1007.88
2017-07-05T00:02:53.320Z,1007.88
2017-07-05T00:03:53.337Z,1007.83
2017-07-05T00:04:53.362Z,1007.86
2017-07-05T00:05:53.386Z,1007.8
2017-07-05T00:06:53.414Z,1007.82
2017-07-05T00:07:53.434Z,1007.81
2017-07-05T00:08:53.458Z,1007.81
2017-07-05T00:09:53.484Z,1007.83
2017-07-05T00:10:53.507Z,1007.83
2017-07-05T00:11:53.531Z,1007.84
2017-07-05T00:12:53.554Z,1007.87
2017-07-05T00:13:56.894Z,1007.83
2017-07-05T00:14:53.603Z,1007.81
2017-07-05T00:15:53.628Z,1007.82
2017-07-05T00:16:53.652Z,1007.79
2017-07-05T00:17:53.676Z,1007.8
2017-07-05T00:18:53.700Z,1007.78
2017-07-05T00:19:53.723Z,1007.8
2017-07-05T00:20:53.750Z,1007.76
2017-07-05T00:21:53.771Z,1007.76
2017-07-05T00:22:53.795Z,1007.76
2017-07-05T00:23:53.820Z,1007.78
2017-07-05T00:24:53.843Z,1007.77
2017-07-05T00:25:53.869Z,1007.79
2017-07-05T00:26:53.892Z,1007.75
2017-07-05T00:27:53.915Z,1007.73
2017-07-05T00:28:53.940Z,1007.76
2017-07-05T00:29:53.964Z,1007.77
2017-07-05T00:30:53.986Z,1007.73
2017-07-05T00:31:54.012Z,1007.71
2017-07-05T00:32:54.035Z,1007.71
2017-07-05T00:33:54.061Z,1007.73
2017-07-05T00:34:54.087Z,1007.71
2017-07-05T00:35:54.109Z,1007.7
2017-07-05T00:36:54.132Z,1007.69
2017-07-05T00:37:54.157Z,1007.66
2017-07-05T00:38:54.179Z,1007.65
2017-07-05T00:39:54.203Z,1007.63
2017-07-05T00:40:54.228Z,1007.63
2017-07-05T00:41:54.323Z,1007.6
2017-07-05T00:42:54.323Z,1007.63
2017-07-05T00:43:54.321Z,1007.63
2017-07-05T00:44:54.324Z,1007.63
2017-07-05T00:45:54.349Z,1007.62
2017-07-05T00:46:54.371Z,1007.64
2017-07-05T00:47:54.394Z,1007.6
2017-07-05T00:48:54.419Z,1007.6
2017-07-05T00:49:54.443Z,1007.56
2017-07-05T00:50:54.465Z,1007.59
2017-07-05T00:51:54.490Z,1007.6
2017-07-05T00:52:54.513Z,1007.58
2017-07-05T00:53:54.536Z,1007.55
2017-07-05T00:54:54.561Z,1007.53
2017-07-05T00:55:54.586Z,1007.53
2017-07-05T00:56:54.609Z,1007.51
2017-07-05T00:57:54.633Z,1007.54
2017-07-05T00:58:54.656Z,1007.53
2017-07-05T00:59:54.680Z,1007.56
2017-07-05T01:00:54.704Z,1007.51
2017-07-05T01:01:54.728Z,1007.51
2017-07-05T01:02:54.754Z,1007.46
2017-07-05T01:03:54.775Z,1007.44
2017-07-05T01:04:54.799Z,1007.47
2017-07-05T01:05:54.823Z,1007.41
2017-07-05T01:06:54.848Z,1007.42
2017-07-05T01:07:54.870Z,1007.4
2017-07-05T01:08:54.893Z,1007.39
2017-07-05T01:09:54.919Z,1007.4
2017-07-05T01:10:54.942Z,1007.38
2017-07-05T01:11:54.969Z,1007.41
2017-07-05T01:12:54.987Z,1007.39
2017-07-05T01:13:55.013Z,1007.38
2017-07-05T01:14:55.037Z,1007.35
2017-07-05T01:15:55.063Z,1007.35
2017-07-05T01:16:55.195Z,1007.37
2017-07-05T01:17:55.108Z,1007.32
2017-07-05T01:18:55.243Z,1007.34
2017-07-05T01:19:55.262Z,1007.37
2017-07-05T01:20:55.281Z,1007.33
2017-07-05T01:21:55.290Z,1007.32
2017-07-05T01:22:55.228Z,1007.34
2017-07-05T01:23:55.250Z,1007.31
2017-07-05T01:24:55.274Z,1007.3
2017-07-05T01:25:55.297Z,1007.29
2017-07-05T01:26:55.321Z,1007.27
2017-07-05T01:27:55.345Z,1007.26
2017-07-05T01:28:55.369Z,1007.29
2017-07-05T01:29:55.393Z,1007.27
2017-07-05T01:30:55.416Z,1007.27
2017-07-05T01:31:55.440Z,1007.31
2017-07-05T01:32:55.463Z,1007.31
2017-07-05T01:33:55.486Z,1007.27
2017-07-05T01:34:55.582Z,1007.25
2017-07-05T01:35:55.616Z,1007.23
2017-07-05T01:36:55.555Z,1007.24
2017-07-05T01:37:55.580Z,1007.24
2017-07-05T01:38:55.604Z,1007.23
2017-07-05T01:39:55.629Z,1007.2
2017-07-05T01:40:55.653Z,1007.19
2017-07-05T01:41:55.675Z,1007.2
2017-07-05T01:42:55.701Z,1007.19
2017-07-05T01:43:55.728Z,1007.18
2017-07-05T01:44:55.745Z,1007.22
2017-07-05T01:45:55.769Z,1007.21
2017-07-05T01:46:55.795Z,1007.18
2017-07-05T01:47:55.816Z,1007.16
2017-07-05T01:48:55.840Z,1007.2
2017-07-05T01:49:55.865Z,1007.19
2017-07-05T01:50:55.886Z,1007.18
2017-07-05T01:51:55.910Z,1007.13
2017-07-05T01:52:55.935Z,1007.14
2017-07-05T01:53:55.956Z,1007.17
2017-07-05T01:54:55.980Z,1007.17
2017-07-05T01:55:56.004Z,1007.13
2017-07-05T01:56:56.029Z,1007.1
2017-07-05T01:57:56.051Z,1007.13
2017-07-05T01:58:56.077Z,1007.12
2017-07-05T01:59:56.097Z,1007.1
2017-07-05T02:00:56.121Z,1007.09
2017-07-05T02:01:56.146Z,1007.08
2017-07-05T02:02:56.168Z,1007.06
2017-07-05T02:03:56.191Z,1007.07
2017-07-05T02:04:56.215Z,1007.01
2017-07-05T02:05:56.238Z,1007
2017-07-05T02:06:56.263Z,1007.01
2017-07-05T02:07:56.287Z,1006.98
2017-07-05T02:08:56.308Z,1006.97
2017-07-05T02:09:56.331Z,1006.94
2017-07-05T02:10:56.357Z,1006.95
2017-07-05T02:11:56.379Z,1006.93
2017-07-05T02:12:56.402Z,1006.91
2017-07-05T02:13:56.489Z,1006.91
2017-07-05T02:14:56.449Z,1006.91
2017-07-05T02:15:56.476Z,1006.9
2017-07-05T02:16:56.494Z,1006.88
2017-07-05T02:17:56.518Z,1006.84
2017-07-05T02:18:56.542Z,1006.86
2017-07-05T02:19:56.567Z,1006.82
2017-07-05T02:20:56.587Z,1006.78
2017-07-05T02:21:56.612Z,1006.8
2017-07-05T02:22:56.635Z,1006.78
2017-07-05T02:23:56.658Z,1006.8
2017-07-05T02:24:56.681Z,1006.84
2017-07-05T02:25:56.704Z,1006.78
2017-07-05T02:26:56.726Z,1006.81
2017-07-05T02:27:56.814Z,1006.81
2017-07-05T02:28:56.834Z,1006.78
2017-07-05T02:29:56.797Z,1006.74
2017-07-05T02:30:56.819Z,1006.72
2017-07-05T02:31:56.899Z,1006.73
2017-07-05T02:33:56.889Z,1006.72
2017-07-05T02:34:56.914Z,1006.7
2017-07-05T02:35:56.934Z,1006.73
2017-07-05T02:36:56.960Z,1006.75
2017-07-05T02:37:56.983Z,1006.73
2017-07-05T02:38:57.005Z,1006.75
2017-07-05T02:39:57.029Z,1006.77
2017-07-05T02:40:57.052Z,1006.74
2017-07-05T02:41:57.077Z,1006.76
2017-07-05T02:42:57.096Z,1006.77
2017-07-05T02:43:57.121Z,1006.78
2017-07-05T02:44:57.144Z,1006.78
2017-07-05T02:45:57.168Z,1006.74
2017-07-05T02:46:57.191Z,1006.77
2017-07-05T02:47:57.213Z,1006.76
2017-07-05T02:48:57.235Z,1006.74
2017-07-05T02:49:57.260Z,1006.71
2017-07-05T02:50:57.282Z,1006.71
2017-07-05T02:51:57.305Z,1006.69
2017-07-05T02:52:57.329Z,1006.68
2017-07-05T02:53:57.351Z,1006.67
2017-07-05T02:54:57.374Z,1006.69
2017-07-05T02:55:57.396Z,1006.71
2017-07-05T02:56:57.420Z,1006.7
2017-07-05T02:57:57.445Z,1006.72
2017-07-05T02:58:57.469Z,1006.71
2017-07-05T02:59:57.492Z,1006.74
2017-07-05T03:00:57.513Z,1006.76
2017-07-05T03:01:57.535Z,1006.73
2017-07-05T03:02:57.558Z,1006.74
2017-07-05T03:03:57.583Z,1006.75
2017-07-05T03:04:57.605Z,1006.76
2017-07-05T03:05:57.627Z,1006.72
2017-07-05T03:06:57.651Z,1006.67
2017-07-05T03:07:57.675Z,1006.65
2017-07-05T03:08:57.696Z,1006.6
2017-07-05T03:09:57.720Z,1006.6
2017-07-05T03:10:57.743Z,1006.57
2017-07-05T03:11:57.765Z,1006.61
2017-07-05T03:12:57.792Z,1006.57
2017-07-05T03:13:57.812Z,1006.64
2017-07-05T03:14:57.836Z,1006.67
2017-07-05T03:15:57.857Z,1006.63
2017-07-05T03:16:57.881Z,1006.61
2017-07-05T03:17:57.904Z,1006.62
2017-07-05T03:18:57.925Z,1006.66
2017-07-05T03:19:57.947Z,1006.66
2017-07-05T03:20:57.971Z,1006.65
2017-07-05T03:21:57.993Z,1006.67
2017-07-05T03:22:58.015Z,1006.61
2017-07-05T03:23:58.038Z,1006.63
2017-07-05T03:24:58.063Z,1006.61
2017-07-05T03:25:58.086Z,1006.63
2017-07-05T03:26:58.107Z,1006.64
2017-07-05T03:27:58.131Z,1006.66
2017-07-05T03:28:58.154Z,1006.65
2017-07-05T03:29:58.176Z,1006.63
2017-07-05T03:30:58.201Z,1006.58
2017-07-05T03:31:58.221Z,1006.55
2017-07-05T03:32:58.244Z,1006.54
2017-07-05T03:33:58.268Z,1006.5
2017-07-05T03:34:58.289Z,1006.51
2017-07-05T03:35:58.313Z,1006.48
2017-07-05T03:36:58.335Z,1006.51
2017-07-05T03:37:58.386Z,1006.51
2017-07-05T03:38:58.381Z,1006.49
2017-07-05T03:39:58.403Z,1006.52
2017-07-05T03:40:58.425Z,1006.51
2017-07-05T03:41:58.451Z,1006.5
2017-07-05T03:42:58.472Z,1006.47
2017-07-05T03:43:58.501Z,1006.46
2017-07-05T03:44:58.517Z,1006.48
2017-07-05T03:45:58.539Z,1006.47
2017-07-05T03:46:58.562Z,1006.39
2017-07-05T03:47:58.584Z,1006.38
2017-07-05T03:48:58.608Z,1006.37
2017-07-05T03:49:58.630Z,1006.4
2017-07-05T03:50:58.654Z,1006.37
2017-07-05T03:51:58.675Z,1006.36
2017-07-05T03:52:58.696Z,1006.35
2017-07-05T03:53:58.721Z,1006.35
2017-07-05T03:54:58.744Z,1006.38
2017-07-05T03:55:58.766Z,1006.36
2017-07-05T03:56:58.788Z,1006.35
2017-07-05T03:57:58.813Z,1006.33
2017-07-05T03:58:58.834Z,1006.32
2017-07-05T03:59:58.856Z,1006.28
2017-07-05T04:00:58.883Z,1006.26
2017-07-05T04:01:58.910Z,1006.28
2017-07-05T04:02:58.923Z,1006.31
2017-07-05T04:03:58.947Z,1006.3
2017-07-05T04:04:58.971Z,1006.32
2017-07-05T04:05:58.992Z,1006.33
2017-07-05T04:06:59.014Z,1006.35
2017-07-05T04:07:59.037Z,1006.38
2017-07-05T04:08:59.061Z,1006.31
2017-07-05T04:09:59.085Z,1006.31
2017-07-05T04:10:59.104Z,1006.32
2017-07-05T04:11:59.128Z,1006.34
2017-07-05T04:12:59.152Z,1006.3
2017-07-05T04:13:59.173Z,1006.25
2017-07-05T04:14:59.196Z,1006.25
2017-07-05T04:15:59.217Z,1006.28
2017-07-05T04:16:59.241Z,1006.26
2017-07-05T04:17:59.264Z,1006.22
2017-07-05T04:18:59.286Z,1006.24
2017-07-05T04:19:59.311Z,1006.24
2017-07-05T04:20:59.335Z,1006.18
2017-07-05T04:21:59.354Z,1006.21
2017-07-05T04:22:59.379Z,1006.24
2017-07-05T04:23:59.400Z,1006.27
2017-07-05T04:24:59.449Z,1006.24
2017-07-05T04:25:59.446Z,1006.26
2017-07-05T04:26:59.466Z,1006.27
2017-07-05T04:27:59.489Z,1006.25
2017-07-05T04:28:59.511Z,1006.24
2017-07-05T04:29:59.537Z,1006.23
2017-07-05T04:30:59.557Z,1006.2
2017-07-05T04:31:59.581Z,1006.22
2017-07-05T04:32:59.604Z,1006.19
2017-07-05T04:33:59.626Z,1006.22
2017-07-05T04:34:59.650Z,1006.22
2017-07-05T04:35:59.672Z,1006.22
2017-07-05T04:36:59.694Z,1006.25
2017-07-05T04:37:59.717Z,1006.25
2017-07-05T04:38:59.740Z,1006.23
2017-07-05T04:39:59.762Z,1006.18
2017-07-05T04:40:59.784Z,1006.17
2017-07-05T04:41:59.808Z,1006.16
2017-07-05T04:42:59.830Z,1006.16
2017-07-05T04:43:59.853Z,1006.16
2017-07-05T04:44:59.875Z,1006.21
2017-07-05T04:45:59.897Z,1006.22
2017-07-05T04:46:59.922Z,1006.2
2017-07-05T04:47:59.943Z,1006.26
2017-07-05T04:48:59.965Z,1006.24
2017-07-05T04:49:59.988Z,1006.25
2017-07-05T04:51:00.011Z,1006.21
2017-07-05T04:52:00.036Z,1006.2
2017-07-05T04:53:00.057Z,1006.21
2017-07-05T04:54:00.078Z,1006.24
2017-07-05T04:55:00.101Z,1006.18
2017-07-05T04:56:00.123Z,1006.15
2017-07-05T04:57:00.148Z,1006.14
2017-07-05T04:58:00.169Z,1006.12
2017-07-05T04:59:00.192Z,1006.1
2017-07-05T05:00:00.216Z,1006.1
2017-07-05T05:01:00.238Z,1006.05
2017-07-05T05:02:00.259Z,1006.03
2017-07-05T05:03:00.282Z,1006.04
2017-07-05T05:04:00.309Z,1006.03
2017-07-05T05:05:00.326Z,1006.05
2017-07-05T05:06:00.350Z,1006.08
2017-07-05T05:07:00.373Z,1006.07
2017-07-05T05:08:00.399Z,1006.09
2017-07-05T05:09:00.417Z,1006.09
2017-07-05T05:10:00.441Z,1006.08
2017-07-05T05:11:00.506Z,1006.08
2017-07-05T05:12:00.486Z,1006.05
2017-07-05T05:13:00.508Z,1006.07
2017-07-05T05:14:00.542Z,1006.02
2017-07-05T05:15:00.555Z,1006
2017-07-05T05:16:00.581Z,1006
2017-07-05T05:17:00.598Z,1005.98
2017-07-05T05:18:00.623Z,1006.03
2017-07-05T05:19:00.647Z,1005.99
2017-07-05T05:20:00.673Z,1006.01
2017-07-05T05:21:00.690Z,1006.06
2017-07-05T05:22:00.723Z,1006.06
2017-07-05T05:23:00.737Z,1006.04
2017-07-05T05:24:00.763Z,1006.08
2017-07-05T05:25:00.787Z,1006.12
2017-07-05T05:26:00.808Z,1006.07
2017-07-05T05:27:00.825Z,1006.08
2017-07-05T05:28:00.856Z,1006.15
2017-07-05T05:29:00.873Z,1006.1
2017-07-05T05:30:00.905Z,1006.15
2017-07-05T05:31:00.918Z,1006.12
2017-07-05T05:32:00.942Z,1006.12
2017-07-05T05:33:00.964Z,1006.15
2017-07-05T05:34:01.039Z,1006.17
2017-07-05T05:35:01.010Z,1006.17
2017-07-05T05:36:01.037Z,1006.17
2017-07-05T05:37:01.059Z,1006.16
2017-07-05T05:38:01.077Z,1006.11
2017-07-05T05:39:01.101Z,1006.13
2017-07-05T05:40:01.132Z,1006.13
2017-07-05T05:41:01.147Z,1006.13
2017-07-05T05:42:01.180Z,1006.14
2017-07-05T05:43:01.193Z,1006.15
2017-07-05T05:44:01.215Z,1006.13
2017-07-05T05:45:01.237Z,1006.1
2017-07-05T05:46:01.261Z,1006.13
2017-07-05T05:47:01.284Z,1006.07
2017-07-05T05:48:01.313Z,1006.04
2017-07-05T05:49:01.329Z,1006.06
2017-07-05T05:50:01.352Z,1006.06
2017-07-05T05:51:01.375Z,1006.09
2017-07-05T05:52:01.399Z,1006.07
2017-07-05T05:53:01.421Z,1006.13
2017-07-05T05:54:01.445Z,1006.11
2017-07-05T05:55:01.467Z,1006.12
2017-07-05T05:56:01.494Z,1006.12
2017-07-05T05:57:01.514Z,1006.12
2017-07-05T05:58:01.535Z,1006.08
2017-07-05T05:59:01.559Z,1006.11
2017-07-05T06:00:01.581Z,1006.1
2017-07-05T06:01:01.603Z,1006.13
2017-07-05T06:02:01.628Z,1006.14
2017-07-05T06:03:01.651Z,1006.11
2017-07-05T06:04:01.673Z,1006.11
2017-07-05T06:05:01.696Z,1006.11
2017-07-05T06:06:01.721Z,1006.1
2017-07-05T06:07:01.743Z,1006.12
2017-07-05T06:08:01.766Z,1006.12
2017-07-05T06:09:01.791Z,1006.16
2017-07-05T06:10:01.813Z,1006.19
2017-07-05T06:11:01.836Z,1006.17
2017-07-05T06:12:01.861Z,1006.19
2017-07-05T06:13:01.883Z,1006.19
2017-07-05T06:14:01.905Z,1006.17
2017-07-05T06:15:01.929Z,1006.16
2017-07-05T06:16:01.952Z,1006.18
2017-07-05T06:17:01.974Z,1006.14
2017-07-05T06:18:01.998Z,1006.11
2017-07-05T06:19:02.022Z,1006.11
2017-07-05T06:20:02.044Z,1006.08
2017-07-05T06:21:02.068Z,1006.11
2017-07-05T06:22:02.091Z,1006.08
2017-07-05T06:23:02.117Z,1006.04
2017-07-05T06:24:02.137Z,1006.04
2017-07-05T06:25:02.162Z,1006.01
2017-07-05T06:26:02.224Z,1006.02
2017-07-05T06:27:02.207Z,1006.04
2017-07-05T06:28:02.233Z,1006.04
2017-07-05T06:29:02.253Z,1006.04
2017-07-05T06:30:02.277Z,1005.98
2017-07-05T06:31:02.300Z,1006.05
2017-07-05T06:32:02.324Z,1006.02
2017-07-05T06:33:02.346Z,1006.04
2017-07-05T06:34:02.369Z,1006.02
2017-07-05T06:35:02.394Z,1006.04
2017-07-05T06:36:02.418Z,1006.06
2017-07-05T06:37:02.439Z,1006.04
2017-07-05T06:38:02.464Z,1006.05
2017-07-05T06:39:02.486Z,1006.02
2017-07-05T06:40:02.511Z,1006.03
2017-07-05T06:41:02.533Z,1006.01
2017-07-05T06:42:02.557Z,1005.98
2017-07-05T06:43:02.580Z,1005.99
2017-07-05T06:44:02.604Z,1005.97
2017-07-05T06:45:02.627Z,1006.03
2017-07-05T06:46:02.650Z,1006.02
2017-07-05T06:47:02.680Z,1006.03
2017-07-05T06:48:02.697Z,1006.04
2017-07-05T06:49:02.727Z,1006.07
2017-07-05T06:50:02.746Z,1006.11
2017-07-05T06:51:02.767Z,1006.08
2017-07-05T06:52:02.795Z,1006.06
2017-07-05T06:53:02.816Z,1006.02
2017-07-05T06:54:02.839Z,1006.07
2017-07-05T06:55:02.862Z,1006.06
2017-07-05T06:56:02.886Z,1006.01
2017-07-05T06:57:02.911Z,1006.08
2017-07-05T06:58:02.934Z,1006.05
2017-07-05T06:59:02.957Z,1006.06
2017-07-05T07:00:02.980Z,1006.05
2017-07-05T07:01:03.004Z,1006.08
2017-07-05T07:02:03.027Z,1006.07
2017-07-05T07:03:03.052Z,1006.13
2017-07-05T07:04:03.079Z,1006.08
2017-07-05T07:05:03.098Z,1006.09
2017-07-05T07:06:03.122Z,1006.12
2017-07-05T07:07:03.145Z,1006.11
2017-07-05T07:08:03.179Z,1006.11
2017-07-05T07:09:03.207Z,1006.15
2017-07-05T07:10:03.218Z,1006.15
2017-07-05T07:11:03.246Z,1006.17
2017-07-05T07:12:03.265Z,1006.13
2017-07-05T07:13:03.286Z,1006.11
2017-07-05T07:14:03.311Z,1006.05
2017-07-05T07:15:03.335Z,1006.08
2017-07-05T07:16:03.362Z,1006.1
2017-07-05T07:17:03.383Z,1006.08
2017-07-05T07:18:03.407Z,1006.08
2017-07-05T07:19:03.431Z,1006.08
2017-07-05T07:20:03.454Z,1006.11
2017-07-05T07:21:03.477Z,1006.08
2017-07-05T07:22:03.505Z,1006.1
2017-07-05T07:23:03.525Z,1006.08
2017-07-05T07:24:03.549Z,1006.1
2017-07-05T07:25:03.573Z,1006.1
2017-07-05T07:26:03.597Z,1006.12
2017-07-05T07:27:03.622Z,1006.13
2017-07-05T07:28:03.648Z,1006.14
2017-07-05T07:29:03.671Z,1006.13
2017-07-05T07:30:03.695Z,1006.15
2017-07-05T07:31:03.720Z,1006.14
2017-07-05T07:32:03.741Z,1006.13
2017-07-05T07:33:03.765Z,1006.15
2017-07-05T07:34:03.789Z,1006.1
2017-07-05T07:35:03.813Z,1006.08
2017-07-05T07:36:03.838Z,1006.12
2017-07-05T07:37:03.861Z,1006.1
2017-07-05T07:38:03.886Z,1006.08
2017-07-05T07:39:03.907Z,1006.1
2017-07-05T07:40:03.937Z,1006.06
2017-07-05T07:41:03.958Z,1006.09
2017-07-05T07:42:03.982Z,1006.06
2017-07-05T07:43:04.006Z,1006.06
2017-07-05T07:44:04.031Z,1006.09
2017-07-05T07:45:04.055Z,1006.08
2017-07-05T07:46:04.079Z,1006.15
2017-07-05T07:47:04.103Z,1006.2
2017-07-05T07:48:04.126Z,1006.3
2017-07-05T07:49:04.152Z,1006.28
2017-07-05T07:50:04.174Z,1006.3
2017-07-05T07:51:04.200Z,1006.32
2017-07-05T07:52:04.224Z,1006.31
2017-07-05T07:53:04.248Z,1006.33
2017-07-05T07:54:04.272Z,1006.28
2017-07-05T07:55:04.297Z,1006.28
2017-07-05T07:56:04.320Z,1006.29
2017-07-05T07:57:04.344Z,1006.31
2017-07-05T07:58:04.369Z,1006.33
2017-07-05T07:59:04.394Z,1006.33
2017-07-05T08:00:04.418Z,1006.32
2017-07-05T08:01:04.445Z,1006.31
2017-07-05T08:02:04.466Z,1006.32
2017-07-05T08:03:04.491Z,1006.33
2017-07-05T08:04:04.515Z,1006.36
2017-07-05T08:05:04.539Z,1006.34
2017-07-05T08:06:04.564Z,1006.34
2017-07-05T08:07:04.588Z,1006.36
2017-07-05T08:08:04.612Z,1006.32
2017-07-05T08:09:04.637Z,1006.33
2017-07-05T08:10:04.661Z,1006.3
2017-07-05T08:11:04.686Z,1006.36
2017-07-05T08:12:04.713Z,1006.38
2017-07-05T08:13:04.736Z,1006.39
2017-07-05T08:14:04.759Z,1006.4
2017-07-05T08:15:04.783Z,1006.41
2017-07-05T08:16:04.807Z,1006.43
2017-07-05T08:17:04.832Z,1006.45
2017-07-05T08:18:04.857Z,1006.47
2017-07-05T08:19:04.881Z,1006.51
2017-07-05T08:20:04.905Z,1006.5
2017-07-05T08:21:04.930Z,1006.53
2017-07-05T08:22:05.042Z,1006.57
2017-07-05T08:23:04.983Z,1006.56
2017-07-05T08:24:05.004Z,1006.59
2017-07-05T08:25:05.029Z,1006.58
2017-07-05T08:26:05.051Z,1006.54
2017-07-05T08:27:05.079Z,1006.55
2017-07-05T08:28:05.103Z,1006.54
2017-07-05T08:29:05.131Z,1006.61
2017-07-05T08:30:05.152Z,1006.58
2017-07-05T08:31:05.177Z,1006.6
2017-07-05T08:32:05.205Z,1006.61
2017-07-05T08:33:05.227Z,1006.62
2017-07-05T08:34:05.253Z,1006.61
2017-07-05T08:35:05.276Z,1006.62
2017-07-05T08:36:05.301Z,1006.62
2017-07-05T08:37:05.327Z,1006.6
2017-07-05T08:38:05.351Z,1006.61
2017-07-05T08:39:05.376Z,1006.62
2017-07-05T08:40:05.401Z,1006.58
2017-07-05T08:41:05.424Z,1006.62
2017-07-05T08:42:05.451Z,1006.59
2017-07-05T08:43:05.477Z,1006.58
2017-07-05T08:44:05.500Z,1006.58
2017-07-05T08:45:05.524Z,1006.58
2017-07-05T08:46:05.550Z,1006.61
2017-07-05T08:47:05.577Z,1006.6
2017-07-05T08:48:05.602Z,1006.59
2017-07-05T08:49:05.626Z,1006.59
2017-07-05T08:50:05.654Z,1006.64
2017-07-05T08:51:05.726Z,1006.6
2017-07-05T08:52:05.701Z,1006.58
2017-07-05T08:53:05.728Z,1006.58
2017-07-05T08:54:05.752Z,1006.6
2017-07-05T08:55:05.779Z,1006.57
2017-07-05T08:56:05.805Z,1006.62
2017-07-05T08:57:05.829Z,1006.6
2017-07-05T08:58:05.855Z,1006.62
2017-07-05T08:59:05.965Z,1006.61
2017-07-05T09:00:05.905Z,1006.66
2017-07-05T09:01:05.931Z,1006.63
2017-07-05T09:02:05.956Z,1006.61
2017-07-05T09:03:05.985Z,1006.63
2017-07-05T09:04:06.009Z,1006.61
2017-07-05T09:05:06.033Z,1006.65
2017-07-05T09:06:06.059Z,1006.65
2017-07-05T09:07:06.084Z,1006.69
2017-07-05T09:08:06.110Z,1006.67
2017-07-05T09:09:06.136Z,1006.68
2017-07-05T09:10:06.161Z,1006.65
2017-07-05T09:11:06.187Z,1006.66
2017-07-05T09:12:06.213Z,1006.63
2017-07-05T09:13:06.239Z,1006.64
2017-07-05T09:14:06.263Z,1006.6
2017-07-05T09:15:06.291Z,1006.62
2017-07-05T09:16:06.320Z,1006.63
2017-07-05T09:17:06.343Z,1006.65
2017-07-05T09:18:06.369Z,1006.63
2017-07-05T09:19:06.395Z,1006.63
2017-07-05T09:20:06.421Z,1006.63
2017-07-05T09:21:06.447Z,1006.68
2017-07-05T09:22:06.473Z,1006.68
2017-07-05T09:23:06.499Z,1006.68
2017-07-05T09:24:06.530Z,1006.69
2017-07-05T09:25:06.553Z,1006.64
2017-07-05T09:26:06.577Z,1006.69
2017-07-05T09:27:06.605Z,1006.64
2017-07-05T09:28:06.629Z,1006.66
2017-07-05T09:29:06.658Z,1006.61
2017-07-05T09:30:06.682Z,1006.67
2017-07-05T09:31:06.709Z,1006.64
2017-07-05T09:32:06.734Z,1006.65
2017-07-05T09:33:06.760Z,1006.64
2017-07-05T09:34:06.788Z,1006.69
2017-07-05T09:35:06.814Z,1006.68
2017-07-05T09:36:06.840Z,1006.67
2017-07-05T09:37:06.866Z,1006.63
2017-07-05T09:38:06.892Z,1006.63
2017-07-05T09:39:06.918Z,1006.64
2017-07-05T09:40:06.947Z,1006.65
2017-07-05T09:41:06.973Z,1006.67
2017-07-05T09:42:06.999Z,1006.67
2017-07-05T09:43:07.025Z,1006.6
2017-07-05T09:44:07.050Z,1006.62
2017-07-05T09:45:07.081Z,1006.6
2017-07-05T09:46:07.105Z,1006.61
2017-07-05T09:47:07.131Z,1006.63
2017-07-05T09:48:07.158Z,1006.59
2017-07-05T09:49:07.184Z,1006.59
2017-07-05T09:50:07.211Z,1006.63
2017-07-05T09:51:07.236Z,1006.59
2017-07-05T09:52:07.264Z,1006.58
2017-07-05T09:53:07.290Z,1006.62
2017-07-05T09:54:07.317Z,1006.59
2017-07-05T09:55:07.345Z,1006.61
2017-07-05T09:56:07.373Z,1006.6
2017-07-05T09:57:07.449Z,1006.6
2017-07-05T09:58:07.427Z,1006.62
2017-07-05T09:59:07.453Z,1006.62
2017-07-05T10:00:07.479Z,1006.59
2017-07-05T10:01:07.505Z,1006.63
2017-07-05T10:02:07.532Z,1006.62
2017-07-05T10:03:07.560Z,1006.62
2017-07-05T10:04:07.587Z,1006.65
2017-07-05T10:05:07.614Z,1006.66
2017-07-05T10:06:07.641Z,1006.67
2017-07-05T10:07:07.668Z,1006.64
2017-07-05T10:08:07.698Z,1006.69
2017-07-05T10:09:07.723Z,1006.7
2017-07-05T10:10:07.778Z,1006.7
2017-07-05T10:11:07.782Z,1006.68
2017-07-05T10:12:07.805Z,1006.7
2017-07-05T10:13:07.838Z,1006.67
2017-07-05T10:14:07.861Z,1006.67
2017-07-05T10:15:07.889Z,1006.68
2017-07-05T10:16:07.915Z,1006.69
2017-07-05T10:17:07.943Z,1006.67
2017-07-05T10:18:07.970Z,1006.63
2017-07-05T10:19:07.999Z,1006.61
2017-07-05T10:20:08.028Z,1006.55
2017-07-05T10:21:08.059Z,1006.62
2017-07-05T10:22:08.083Z,1006.63
2017-07-05T10:23:08.110Z,1006.62
2017-07-05T10:24:08.139Z,1006.58
2017-07-05T10:25:08.168Z,1006.57
2017-07-05T10:26:08.196Z,1006.55
2017-07-05T10:27:08.224Z,1006.55
2017-07-05T10:28:08.253Z,1006.55
2017-07-05T10:29:08.282Z,1006.59
2017-07-05T10:30:08.309Z,1006.55
2017-07-05T10:31:08.338Z,1006.54
2017-07-05T10:32:08.367Z,1006.56
2017-07-05T10:33:08.395Z,1006.55
2017-07-05T10:34:08.424Z,1006.55
2017-07-05T10:35:08.452Z,1006.51
2017-07-05T10:36:08.482Z,1006.5
2017-07-05T10:37:08.511Z,1006.53
2017-07-05T10:38:08.539Z,1006.5
2017-07-05T10:39:08.571Z,1006.53
2017-07-05T10:40:08.601Z,1006.52
2017-07-05T10:41:08.635Z,1006.49
2017-07-05T10:42:08.655Z,1006.55
2017-07-05T10:43:08.685Z,1006.53
2017-07-05T10:44:08.715Z,1006.51
2017-07-05T10:45:08.743Z,1006.56
2017-07-05T10:46:08.773Z,1006.55
2017-07-05T10:47:08.802Z,1006.54
2017-07-05T10:48:08.831Z,1006.53
2017-07-05T10:49:08.861Z,1006.52
2017-07-05T10:50:08.891Z,1006.55
2017-07-05T10:51:08.919Z,1006.55
2017-07-05T10:52:08.949Z,1006.58
2017-07-05T10:53:08.980Z,1006.56
2017-07-05T10:54:09.009Z,1006.57
2017-07-05T10:55:09.039Z,1006.56
2017-07-05T10:56:09.067Z,1006.62
2017-07-05T10:57:09.098Z,1006.6
2017-07-05T10:58:09.133Z,1006.63
2017-07-05T10:59:09.158Z,1006.59
2017-07-05T11:00:09.187Z,1006.56
2017-07-05T11:01:09.216Z,1006.57
2017-07-05T11:02:09.247Z,1006.55
2017-07-05T11:03:09.276Z,1006.54
2017-07-05T11:04:09.306Z,1006.58
2017-07-05T11:05:09.335Z,1006.5
2017-07-05T11:06:09.365Z,1006.57
2017-07-05T11:07:09.395Z,1006.52
2017-07-05T11:08:09.425Z,1006.51
2017-07-05T11:09:09.454Z,1006.47
2017-07-05T11:10:09.485Z,1006.54
2017-07-05T11:11:09.514Z,1006.54
2017-07-05T11:12:09.545Z,1006.46
2017-07-05T11:13:09.574Z,1006.51
2017-07-05T11:14:09.604Z,1006.52
2017-07-05T11:15:09.634Z,1006.47
2017-07-05T11:16:09.664Z,1006.5
2017-07-05T11:17:09.695Z,1006.5
2017-07-05T11:18:09.761Z,1006.51
2017-07-05T11:19:09.754Z,1006.49
2017-07-05T11:20:09.784Z,1006.49
2017-07-05T11:21:09.816Z,1006.45
2017-07-05T11:22:09.872Z,1006.47
2017-07-05T11:23:09.876Z,1006.47
2017-07-05T11:24:09.905Z,1006.51
2017-07-05T11:25:09.937Z,1006.48
2017-07-05T11:26:09.966Z,1006.53
2017-07-05T11:27:09.996Z,1006.53
2017-07-05T11:28:10.029Z,1006.51
2017-07-05T11:29:10.056Z,1006.49
2017-07-05T11:30:10.105Z,1006.5
2017-07-05T11:31:10.118Z,1006.49
2017-07-05T11:32:10.150Z,1006.5
2017-07-05T11:33:10.178Z,1006.52
2017-07-05T11:34:10.238Z,1006.52
2017-07-05T11:35:10.240Z,1006.55
2017-07-05T11:36:10.268Z,1006.51
2017-07-05T11:37:10.301Z,1006.5
2017-07-05T11:38:10.382Z,1006.47
2017-07-05T11:39:10.362Z,1006.5
2017-07-05T11:40:10.391Z,1006.49
2017-07-05T11:41:10.423Z,1006.53
2017-07-05T11:42:10.551Z,1006.52
2017-07-05T11:43:10.485Z,1006.51
2017-07-05T11:44:10.514Z,1006.52
2017-07-05T11:45:10.549Z,1006.52
2017-07-05T11:46:10.575Z,1006.52
2017-07-05T11:47:10.607Z,1006.51
2017-07-05T11:48:10.638Z,1006.48
2017-07-05T11:49:10.668Z,1006.52
2017-07-05T11:50:10.699Z,1006.51
2017-07-05T11:51:10.802Z,1006.51
2017-07-05T11:52:10.829Z,1006.52
2017-07-05T11:53:10.827Z,1006.52
2017-07-05T11:54:10.829Z,1006.53
2017-07-05T11:55:10.853Z,1006.52
2017-07-05T11:56:10.885Z,1006.54
2017-07-05T11:57:10.915Z,1006.52
2017-07-05T11:58:10.946Z,1006.52
2017-07-05T11:59:10.977Z,1006.52
2017-07-05T12:00:11.008Z,1006.48
2017-07-05T12:01:11.040Z,1006.51
2017-07-05T12:02:11.070Z,1006.47
2017-07-05T12:03:11.102Z,1006.42
2017-07-05T12:04:11.133Z,1006.42
2017-07-05T12:05:11.165Z,1006.42
2017-07-05T12:06:11.195Z,1006.41
2017-07-05T12:07:11.226Z,1006.45
2017-07-05T12:08:11.257Z,1006.43
2017-07-05T12:09:11.287Z,1006.44
2017-07-05T12:10:11.321Z,1006.41